Time;durP1;ratioP1;P1;durP2;ratioP2;P2;SDS_P1;SDS_P2;PMS_P1;PMS_P2;Temp;Humidity;BMP_temperature;BMP_pressure;BME280_temperature;BME280_humidity;BME280_pressure;Samples;Min_cycle;Max_cycle;Signal;HPM_P1;HPM_P2
2023/04/17 00:02:17;;;;;;;14.32;9.00;;;9.10;99.90;;;;;;5016786;28;20431;-38
2023/04/17 00:04:44;;;;;;;15.77;9.23;;;9.10;99.90;;;;;;5051061;28;20495;-38
2023/04/17 00:07:10;;;;;;;18.70;10.13;;;9.00;99.90;;;;;;5044786;28;20061;-39
2023/04/17 00:09:36;;;;;;;24.05;9.80;;;9.00;99.90;;;;;;5047494;28;20486;-39
2023/04/17 00:12:02;;;;;;;16.58;8.57;;;9.00;99.90;;;;;;5048529;28;20048;-38
2023/04/17 00:14:27;;;;;;;16.00;8.70;;;9.00;99.90;;;;;;5040294;28;20046;-39
2023/04/17 00:16:53;;;;;;;19.20;9.82;;;9.00;99.90;;;;;;5047368;28;20041;-38
2023/04/17 00:19:19;;;;;;;17.92;10.18;;;9.00;99.90;;;;;;5047619;28;20148;-39
2023/04/17 00:21:45;;;;;;;17.38;9.07;;;8.90;99.90;;;;;;5047769;28;20059;-39
2023/04/17 00:24:11;;;;;;;19.38;10.05;;;9.00;99.90;;;;;;5046141;28;20144;-38
2023/04/17 00:26:37;;;;;;;16.42;8.90;;;8.90;99.90;;;;;;5044444;28;20467;-38
2023/04/17 00:29:03;;;;;;;16.17;8.65;;;8.90;99.90;;;;;;5042651;28;20049;-40
2023/04/17 00:31:29;;;;;;;16.02;9.05;;;8.90;99.90;;;;;;5050805;28;20063;-40
2023/04/17 00:33:54;;;;;;;16.50;8.50;;;8.90;99.90;;;;;;5049518;28;20541;-38
2023/04/17 00:36:20;;;;;;;16.50;8.43;;;9.00;99.90;;;;;;5049663;28;20128;-38
2023/04/17 00:38:46;;;;;;;15.93;8.90;;;9.00;99.90;;;;;;5042918;28;20562;-40
2023/04/17 00:41:12;;;;;;;16.30;9.05;;;9.00;99.90;;;;;;5049388;28;20053;-39
2023/04/17 00:43:38;;;;;;;17.08;8.02;;;9.00;99.90;;;;;;5049013;28;20053;-38
2023/04/17 00:46:04;;;;;;;13.50;7.75;;;8.90;99.90;;;;;;5045568;28;20048;-40
2023/04/17 00:48:31;;;;;;;15.60;8.48;;;8.90;99.90;;;;;;5045702;28;20057;-40
2023/04/17 00:51:01;;;;;;;17.02;8.52;;;8.90;99.90;;;;;;5049089;28;20068;-38
2023/04/17 00:53:28;;;;;;;16.92;9.77;;;8.90;99.90;;;;;;5049260;28;20080;-38
2023/04/17 00:55:54;;;;;;;13.93;7.45;;;8.90;99.90;;;;;;5039726;28;20062;-38
2023/04/17 00:58:21;;;;;;;15.10;8.68;;;8.90;99.90;;;;;;5042886;28;20064;-38
2023/04/17 01:00:47;;;;;;;16.77;9.00;;;8.90;99.90;;;;;;5044425;28;20526;-39
2023/04/17 01:03:13;;;;;;;15.18;9.00;;;8.90;99.90;;;;;;5040205;28;20068;-38
2023/04/17 01:05:39;;;;;;;16.00;8.77;;;8.80;99.90;;;;;;5050283;28;20060;-38
2023/04/17 01:08:05;;;;;;;14.68;8.60;;;8.90;99.90;;;;;;5047188;28;20052;-39
2023/04/17 01:10:31;;;;;;;16.83;8.73;;;8.80;99.90;;;;;;5048378;28;20056;-38
2023/04/17 01:13:03;;;;;;;17.00;8.95;;;8.80;99.90;;;;;;5043604;28;20159;-38
2023/04/17 01:15:29;;;;;;;;;;;8.80;99.90;;;;;;5046110;28;20049;-38
2023/04/17 01:17:55;;;;;;;13.77;7.22;;;8.80;99.90;;;;;;5042601;28;19920;-38
2023/04/17 01:20:21;;;;;;;16.27;9.20;;;8.80;99.90;;;;;;5026893;28;20067;-38
2023/04/17 01:22:51;;;;;;;16.85;10.13;;;8.80;99.90;;;;;;5048489;28;20045;-39
2023/04/17 01:25:19;;;;;;;18.13;8.90;;;8.80;99.90;;;;;;5050185;28;20132;-38
2023/04/17 01:27:45;;;;;;;19.33;9.82;;;8.70;99.90;;;;;;5044085;28;20057;-38
2023/04/17 01:30:11;;;;;;;16.70;9.40;;;8.70;99.90;;;;;;5046095;28;20053;-39
2023/04/17 01:32:37;;;;;;;15.43;9.35;;;8.70;99.90;;;;;;5048369;28;20135;-37
2023/04/17 01:35:03;;;;;;;17.00;9.05;;;8.70;99.90;;;;;;5048503;28;20041;-38
2023/04/17 01:37:28;;;;;;;15.40;8.85;;;8.70;99.90;;;;;;5042285;28;20053;-38
2023/04/17 01:39:54;;;;;;;17.25;9.50;;;8.70;99.90;;;;;;5044376;28;20054;-39
2023/04/17 01:42:20;;;;;;;18.15;10.18;;;8.70;99.90;;;;;;5028962;28;20056;-39
2023/04/17 01:44:46;;;;;;;14.73;8.50;;;8.70;99.90;;;;;;5029084;28;21416;-38
2023/04/17 01:47:12;;;;;;;17.42;10.00;;;8.80;99.90;;;;;;5028707;28;20480;-38
2023/04/17 01:49:38;;;;;;;16.83;9.57;;;8.80;99.90;;;;;;5028216;28;20451;-38
2023/04/17 01:52:03;;;;;;;19.15;9.95;;;8.80;99.90;;;;;;5029380;28;20049;-38
2023/04/17 01:54:29;;;;;;;16.67;9.70;;;8.80;99.90;;;;;;5029801;28;20056;-38
2023/04/17 01:56:55;;;;;;;20.23;10.35;;;8.80;99.90;;;;;;5030517;28;20886;-38
2023/04/17 01:59:21;;;;;;;18.00;9.38;;;8.80;99.90;;;;;;5025672;28;20534;-40
2023/04/17 02:01:52;;;;;;;15.77;9.23;;;8.80;99.90;;;;;;5030799;28;20091;-39
2023/04/17 02:04:17;;;;;;;15.93;9.18;;;8.80;99.90;;;;;;5030573;28;20052;-38
2023/04/17 02:06:43;;;;;;;18.45;10.63;;;8.80;99.90;;;;;;5027833;28;20107;-38
2023/04/17 02:09:09;;;;;;;16.98;9.95;;;8.70;99.90;;;;;;5030054;28;20123;-38
2023/04/17 02:11:35;;;;;;;20.50;10.35;;;8.70;99.90;;;;;;5026674;28;20941;-38
2023/04/17 02:14:01;;;;;;;20.00;11.15;;;8.70;99.90;;;;;;5025062;28;20055;-38
2023/04/17 02:16:27;;;;;;;19.85;9.82;;;8.70;99.90;;;;;;5024113;28;20318;-40
2023/04/17 02:18:53;;;;;;;19.08;10.55;;;8.70;99.90;;;;;;5029562;28;20107;-38
2023/04/17 02:21:20;;;;;;;21.25;11.60;;;8.70;99.90;;;;;;5023313;28;20051;-38
2023/04/17 02:23:46;;;;;;;20.60;10.98;;;8.70;99.90;;;;;;5029435;28;20083;-38
2023/04/17 02:26:12;;;;;;;21.02;10.95;;;8.70;99.90;;;;;;5023407;28;20128;-38
2023/04/17 02:28:38;;;;;;;19.08;9.95;;;8.70;99.90;;;;;;5030385;28;20055;-38
2023/04/17 02:31:07;;;;;;;17.67;10.40;;;8.70;99.90;;;;;;5026624;28;20439;-38
2023/04/17 02:33:35;;;;;;;21.85;12.05;;;8.70;99.90;;;;;;5035766;28;20052;-38
2023/04/17 02:36:01;;;;;;;19.30;10.48;;;8.60;99.90;;;;;;5004184;28;20087;-39
2023/04/17 02:38:30;;;;;;;21.30;11.75;;;8.60;99.90;;;;;;5025262;28;20131;-38
2023/04/17 02:40:57;;;;;;;22.00;11.45;;;8.60;99.90;;;;;;5027801;28;20124;-38
2023/04/17 02:43:22;;;;;;;20.08;10.07;;;8.60;99.90;;;;;;5027398;28;20049;-39
2023/04/17 02:45:48;;;;;;;19.40;10.95;;;8.60;99.90;;;;;;5028743;28;20041;-39
2023/04/17 02:48:14;;;;;;;23.02;9.43;;;8.60;99.90;;;;;;5033468;28;20053;-38
2023/04/17 02:50:40;;;;;;;21.85;11.52;;;8.50;99.90;;;;;;5030004;28;20499;-39
2023/04/17 02:53:06;;;;;;;20.88;11.65;;;8.50;99.90;;;;;;5020831;28;20053;-37
2023/04/17 02:55:31;;;;;;;20.65;10.57;;;8.60;99.90;;;;;;5027520;28;20045;-39
2023/04/17 02:57:57;;;;;;;18.13;9.90;;;8.60;99.90;;;;;;5012210;28;20049;-38
2023/04/17 03:00:23;;;;;;;25.13;12.18;;;8.60;99.90;;;;;;5025977;28;20384;-39
2023/04/17 03:02:49;;;;;;;21.00;11.63;;;8.60;99.90;;;;;;5027772;28;20107;-38
2023/04/17 03:05:16;;;;;;;21.23;12.00;;;8.60;99.90;;;;;;5028854;28;20084;-37
2023/04/17 03:07:42;;;;;;;20.58;11.55;;;8.60;99.90;;;;;;5025190;28;20085;-38
2023/04/17 03:10:08;;;;;;;25.70;12.63;;;8.60;99.90;;;;;;5028675;28;20542;-40
2023/04/17 03:12:34;;;;;;;21.92;11.45;;;8.50;99.90;;;;;;5027046;28;20486;-37
2023/04/17 03:15:01;;;;;;;20.00;10.05;;;8.50;99.90;;;;;;5023775;28;20053;-39
2023/04/17 03:17:26;;;;;;;17.50;10.48;;;8.50;99.90;;;;;;5023113;28;20094;-38
2023/04/17 03:19:52;;;;;;;23.85;11.50;;;8.50;99.90;;;;;;5022052;28;20049;-38
2023/04/17 03:22:18;;;;;;;22.83;12.20;;;8.50;99.90;;;;;;5000116;28;20044;-38
2023/04/17 03:24:43;;;;;;;24.55;12.38;;;8.60;99.90;;;;;;5027409;28;21110;-38
2023/04/17 03:27:09;;;;;;;23.95;13.07;;;8.60;99.90;;;;;;5024699;28;20164;-38
2023/04/17 03:29:35;;;;;;;23.33;12.15;;;8.50;99.90;;;;;;5024788;28;20049;-38
2023/04/17 03:32:00;;;;;;;24.45;12.55;;;8.50;99.90;;;;;;5026744;28;20053;-38
2023/04/17 03:34:27;;;;;;;25.83;12.98;;;8.50;99.90;;;;;;5026164;28;20092;-38
2023/04/17 03:36:53;;;;;;;26.73;12.43;;;8.50;99.90;;;;;;5033278;28;20501;-39
2023/04/17 03:39:19;;;;;;;23.58;11.88;;;8.50;99.90;;;;;;5026262;28;20148;-38
2023/04/17 03:41:45;;;;;;;27.25;12.82;;;8.50;99.90;;;;;;5026627;28;20049;-38
2023/04/17 03:44:11;;;;;;;23.67;12.13;;;8.60;99.90;;;;;;5021822;28;20235;-37
2023/04/17 03:46:37;;;;;;;28.55;12.35;;;8.50;99.90;;;;;;5023671;28;20052;-38
2023/04/17 03:49:03;;;;;;;23.42;12.02;;;8.50;99.90;;;;;;5015688;28;20052;-39
2023/04/17 03:51:30;;;;;;;21.70;11.50;;;8.50;99.90;;;;;;5028848;28;20624;-38
2023/04/17 03:53:56;;;;;;;24.92;12.30;;;8.50;99.90;;;;;;5018162;28;20655;-39
2023/04/17 03:56:21;;;;;;;21.15;11.88;;;8.50;99.90;;;;;;5028043;28;20168;-38
2023/04/17 03:58:47;;;;;;;22.38;11.93;;;8.50;99.90;;;;;;5025676;28;20102;-37
2023/04/17 04:01:13;;;;;;;21.30;10.60;;;8.50;99.90;;;;;;5030173;28;20048;-40
2023/04/17 04:03:39;;;;;;;18.95;9.98;;;8.50;99.90;;;;;;5004873;28;20072;-38
2023/04/17 04:06:06;;;;;;;24.67;12.27;;;8.50;99.90;;;;;;5002059;28;20588;-38
2023/04/17 04:08:32;;;;;;;22.48;10.98;;;8.50;99.90;;;;;;5004178;28;20061;-37
2023/04/17 04:11:00;;;;;;;25.00;12.60;;;8.50;99.90;;;;;;5031924;28;20135;-39
2023/04/17 04:13:26;;;;;;;25.58;12.82;;;8.50;99.90;;;;;;5036280;28;20049;-37
2023/04/17 04:15:51;;;;;;;24.58;12.82;;;8.50;99.90;;;;;;5035646;28;20064;-40
2023/04/17 04:18:17;;;;;;;21.20;11.20;;;8.50;99.90;;;;;;5045771;28;20408;-38
2023/04/17 04:20:44;;;;;;;22.00;11.57;;;8.50;99.90;;;;;;5041801;28;20533;-38
2023/04/17 04:23:10;;;;;;;22.00;11.07;;;8.50;99.90;;;;;;5035712;28;20530;-37
2023/04/17 04:25:40;;;;;;;21.30;12.20;;;8.50;99.90;;;;;;5040699;28;20048;-39
2023/04/17 04:28:06;;;;;;;21.55;12.23;;;8.50;99.90;;;;;;5041168;28;20506;-38
2023/04/17 04:30:34;;;;;;;20.58;11.98;;;8.50;99.90;;;;;;5044602;28;20083;-40
2023/04/17 04:33:04;;;;;;;23.55;13.00;;;8.50;99.90;;;;;;5042540;28;20115;-39
2023/04/17 04:35:30;;;;;;;24.15;12.48;;;8.50;99.90;;;;;;5041163;28;20110;-39
2023/04/17 04:38:00;;;;;;;23.52;12.27;;;8.50;99.90;;;;;;5044005;28;20045;-39
2023/04/17 04:40:27;;;;;;;24.42;12.23;;;8.50;99.90;;;;;;5016269;28;20569;-38
2023/04/17 04:42:54;;;;;;;23.67;12.75;;;8.50;99.90;;;;;;5040634;28;20052;-38
2023/04/17 04:45:20;;;;;;;23.30;12.23;;;8.50;99.90;;;;;;5042420;28;20045;-38
2023/04/17 04:47:45;;;;;;;24.52;12.05;;;8.50;99.90;;;;;;5044999;28;20052;-38
2023/04/17 04:50:11;;;;;;;23.60;12.15;;;8.50;99.90;;;;;;5047454;28;20057;-40
2023/04/17 04:52:37;;;;;;;19.90;10.38;;;8.50;99.90;;;;;;5048526;28;20049;-39
2023/04/17 04:55:03;;;;;;;21.05;11.40;;;8.50;99.90;;;;;;5046091;28;20103;-40
2023/04/17 04:57:29;;;;;;;22.92;12.77;;;8.50;99.90;;;;;;5050021;28;20090;-38
2023/04/17 04:59:54;;;;;;;22.65;11.70;;;8.50;99.90;;;;;;5048046;28;20045;-39
2023/04/17 05:02:20;;;;;;;23.17;12.95;;;8.50;99.90;;;;;;5046062;28;20053;-37
2023/04/17 05:04:46;;;;;;;21.02;11.57;;;8.40;99.90;;;;;;5041771;28;20045;-40
2023/04/17 05:07:11;;;;;;;24.10;11.73;;;8.50;99.90;;;;;;5046808;28;20057;-40
2023/04/17 05:09:37;;;;;;;19.40;11.20;;;8.50;99.90;;;;;;5043947;28;20056;-39
2023/04/17 05:12:03;;;;;;;24.77;12.60;;;8.50;99.90;;;;;;5033722;28;20102;-40
2023/04/17 05:14:28;;;;;;;23.58;12.57;;;8.50;99.90;;;;;;5036176;28;20509;-38
2023/04/17 05:16:54;;;;;;;20.90;11.13;;;8.50;99.90;;;;;;5037226;28;20564;-39
2023/04/17 05:19:20;;;;;;;25.35;12.80;;;8.50;99.90;;;;;;5039517;28;20080;-38
2023/04/17 05:21:46;;;;;;;23.25;11.40;;;8.50;99.90;;;;;;5042581;28;20052;-39
2023/04/17 05:24:12;;;;;;;24.40;12.05;;;8.50;99.90;;;;;;5044265;28;20061;-41
2023/04/17 05:26:37;;;;;;;24.92;12.15;;;8.50;99.90;;;;;;5044108;28;20407;-49
2023/04/17 05:29:03;;;;;;;21.05;11.70;;;8.50;99.90;;;;;;5044756;28;20057;-40
2023/04/17 05:31:29;;;;;;;23.40;12.20;;;8.50;99.90;;;;;;5031371;28;20049;-38
2023/04/17 05:33:54;;;;;;;24.25;12.32;;;8.50;99.90;;;;;;5047311;28;20117;-40
2023/04/17 05:36:21;;;;;;;22.23;10.90;;;8.50;99.90;;;;;;5045565;28;20048;-35
2023/04/17 05:38:47;;;;;;;19.98;10.40;;;8.50;99.90;;;;;;5046789;28;20444;-35
2023/04/17 05:41:13;;;;;;;28.10;14.38;;;8.50;99.90;;;;;;5043175;28;20498;-36
2023/04/17 05:43:38;;;;;;;23.75;12.13;;;8.50;99.90;;;;;;5045477;28;20111;-35
2023/04/17 05:46:04;;;;;;;21.73;11.63;;;8.60;99.90;;;;;;5041369;28;20506;-35
2023/04/17 05:48:31;;;;;;;22.20;11.93;;;8.60;99.90;;;;;;5037046;28;20053;-34
2023/04/17 05:50:56;;;;;;;20.92;12.80;;;8.50;99.90;;;;;;5042819;28;20056;-34
2023/04/17 05:53:22;;;;;;;20.48;10.80;;;8.50;99.90;;;;;;5045694;28;20118;-34
2023/04/17 05:55:51;;;;;;;19.90;11.05;;;8.50;99.90;;;;;;5039762;28;20049;-35
2023/04/17 05:58:16;;;;;;;21.52;11.05;;;8.50;99.90;;;;;;5036312;28;20572;-34
2023/04/17 06:00:42;;;;;;;21.05;11.57;;;8.50;99.90;;;;;;5034817;28;20410;-36
2023/04/17 06:03:08;;;;;;;20.02;11.75;;;8.50;99.90;;;;;;5040399;28;20064;-35
2023/04/17 06:05:34;;;;;;;20.48;11.98;;;8.50;99.90;;;;;;5046360;28;20072;-35
2023/04/17 06:08:00;;;;;;;19.60;9.63;;;8.50;99.90;;;;;;5037159;28;20056;-35
2023/04/17 06:10:26;;;;;;;25.08;13.95;;;8.50;99.90;;;;;;5046067;28;20064;-36
2023/04/17 06:12:52;;;;;;;18.13;11.00;;;8.60;99.90;;;;;;5038921;28;20128;-35
2023/04/17 06:15:18;;;;;;;22.42;11.23;;;8.60;99.90;;;;;;5039020;28;20200;-35
2023/04/17 06:17:44;;;;;;;19.60;9.90;;;8.60;99.90;;;;;;5032662;28;20292;-35
2023/04/17 06:20:10;;;;;;;19.98;10.95;;;8.60;99.90;;;;;;5045469;28;20052;-36
2023/04/17 06:22:39;;;;;;;20.38;10.57;;;8.60;99.90;;;;;;5032304;28;20041;-36
2023/04/17 06:25:06;;;;;;;18.13;10.45;;;8.60;99.90;;;;;;5040080;28;20060;-37
2023/04/17 06:27:32;;;;;;;21.35;10.98;;;8.60;99.90;;;;;;5044499;28;20144;-37
2023/04/17 06:29:57;;;;;;;17.88;9.25;;;8.60;99.90;;;;;;5047173;28;20128;-36
2023/04/17 06:32:23;;;;;;;19.13;10.70;;;8.60;99.90;;;;;;5040906;28;20589;-35
2023/04/17 06:34:49;;;;;;;21.58;11.65;;;8.70;99.90;;;;;;5040716;28;20049;-35
2023/04/17 06:37:15;;;;;;;18.73;11.10;;;8.70;99.90;;;;;;5044170;28;20376;-35
2023/04/17 06:39:40;;;;;;;21.25;11.70;;;8.70;99.90;;;;;;5046320;28;20067;-36
2023/04/17 06:42:06;;;;;;;20.38;10.43;;;8.70;99.90;;;;;;5046630;28;20051;-35
2023/04/17 06:44:32;;;;;;;21.08;11.07;;;8.80;99.90;;;;;;5047189;28;20486;-35
2023/04/17 06:47:02;;;;;;;21.73;11.95;;;8.80;99.90;;;;;;5037164;28;20161;-35
2023/04/17 06:49:28;;;;;;;20.80;11.15;;;8.90;99.90;;;;;;5044103;28;20049;-35
2023/04/17 06:51:54;;;;;;;19.02;10.68;;;9.00;99.90;;;;;;5030303;28;20596;-33
2023/04/17 06:54:20;;;;;;;18.90;11.07;;;9.00;99.90;;;;;;5039596;28;20171;-35
2023/04/17 06:56:45;;;;;;;19.58;10.45;;;9.10;99.90;;;;;;5040020;28;20044;-35
2023/04/17 06:59:11;;;;;;;16.55;8.85;;;9.10;99.90;;;;;;5041895;28;20059;-35
2023/04/17 07:01:39;;;;;;;18.20;9.98;;;9.10;99.90;;;;;;5018345;28;20196;-36
2023/04/17 07:04:05;;;;;;;19.98;11.02;;;9.10;99.90;;;;;;5038310;28;20072;-33
2023/04/17 07:06:32;;;;;;;17.77;9.43;;;9.10;99.90;;;;;;5043295;28;20055;-35
2023/04/17 07:08:59;;;;;;;15.90;9.20;;;9.00;99.90;;;;;;5037938;28;20677;-39
2023/04/17 07:11:25;;;;;;;19.75;10.48;;;9.00;99.90;;;;;;5042085;28;20139;-41
2023/04/17 07:13:50;;;;;;;21.23;11.02;;;9.00;99.90;;;;;;5038386;28;20140;-39
2023/04/17 07:16:16;;;;;;;17.98;10.02;;;9.00;99.90;;;;;;5038183;28;20767;-37
2023/04/17 07:18:42;;;;;;;20.27;10.70;;;9.10;99.90;;;;;;5037531;28;20052;-38
2023/04/17 07:21:07;;;;;;;20.15;11.00;;;9.10;99.90;;;;;;5036147;28;20053;-35
2023/04/17 07:23:33;;;;;;;20.10;11.70;;;9.10;99.90;;;;;;5038643;28;20060;-35
2023/04/17 07:25:59;;;;;;;21.35;11.80;;;9.10;99.90;;;;;;5038450;28;20064;-34
2023/04/17 07:28:24;;;;;;;17.83;10.25;;;9.20;99.90;;;;;;5039846;28;20102;-36
2023/04/17 07:30:53;;;;;;;20.38;10.35;;;9.20;99.90;;;;;;5028573;28;20517;-35
2023/04/17 07:33:19;;;;;;;19.20;10.52;;;9.20;99.90;;;;;;5046699;28;20052;-35
2023/04/17 07:35:45;;;;;;;18.73;10.13;;;9.30;99.90;;;;;;5040173;28;20051;-37
2023/04/17 07:38:11;;;;;;;19.52;10.57;;;9.40;99.90;;;;;;5037832;28;20049;-37
2023/04/17 07:40:37;;;;;;;18.75;11.32;;;9.50;99.90;;;;;;5039567;28;20049;-36
2023/04/17 07:43:02;;;;;;;19.85;10.88;;;9.60;99.90;;;;;;5041488;28;20053;-36
2023/04/17 07:45:28;;;;;;;16.45;9.68;;;9.60;99.90;;;;;;5040712;28;20131;-36
2023/04/17 07:47:54;;;;;;;16.40;9.48;;;9.70;99.90;;;;;;5046362;28;20049;-36
2023/04/17 07:50:20;;;;;;;20.42;10.80;;;9.80;99.90;;;;;;5041454;28;20051;-36
2023/04/17 07:52:46;;;;;;;17.83;10.80;;;9.80;99.90;;;;;;5045624;28;20087;-36
2023/04/17 07:55:12;;;;;;;20.77;11.77;;;9.90;99.90;;;;;;5043811;28;20178;-36
2023/04/17 07:57:41;;;;;;;17.50;9.90;;;9.90;99.90;;;;;;5046824;28;20410;-36
2023/04/17 08:00:09;;;;;;;17.85;10.43;;;10.00;99.90;;;;;;5021823;28;20053;-37
2023/04/17 08:02:35;;;;;;;16.02;9.80;;;10.00;99.90;;;;;;5044191;28;20576;-36
2023/04/17 08:05:01;;;;;;;20.75;11.00;;;10.10;99.90;;;;;;5041459;28;20053;-37
2023/04/17 08:07:27;;;;;;;22.25;11.10;;;10.20;99.90;;;;;;5043362;28;20742;-35
2023/04/17 08:09:53;;;;;;;17.92;9.85;;;10.30;99.90;;;;;;5040091;28;20048;-35
2023/04/17 08:12:18;;;;;;;19.58;10.23;;;10.40;99.90;;;;;;5021703;28;20045;-35
2023/04/17 08:14:44;;;;;;;19.13;11.45;;;10.50;99.90;;;;;;5037102;28;20108;-36
2023/04/17 08:17:09;;;;;;;21.42;10.98;;;10.60;99.90;;;;;;5041124;28;20501;-35
2023/04/17 08:19:35;;;;;;;19.17;10.07;;;10.70;99.90;;;;;;5043968;28;20072;-36
2023/04/17 08:22:03;;;;;;;17.55;11.07;;;10.80;99.90;;;;;;5040811;28;20265;-35
2023/04/17 08:24:30;;;;;;;15.15;9.48;;;10.90;99.90;;;;;;5039504;28;20144;-35
2023/04/17 08:26:56;;;;;;;16.55;10.40;;;11.10;99.90;;;;;;5041494;28;20510;-36
2023/04/17 08:29:22;;;;;;;17.25;9.98;;;11.20;99.90;;;;;;5046155;28;20148;-35
2023/04/17 08:31:47;;;;;;;17.45;10.52;;;11.30;99.90;;;;;;5048537;28;20136;-36
2023/04/17 08:34:13;;;;;;;21.00;10.55;;;11.30;99.90;;;;;;5047590;28;20067;-35
2023/04/17 08:36:39;;;;;;;20.23;10.80;;;11.40;99.90;;;;;;5044480;28;20612;-35
2023/04/17 08:39:05;;;;;;;20.70;12.30;;;11.40;99.90;;;;;;5041803;28;20586;-35
2023/04/17 08:41:45;;;;;;;17.75;10.27;;;11.40;99.90;;;;;;5045549;28;20059;-35
2023/04/17 08:44:11;;;;;;;18.48;10.85;;;11.50;99.90;;;;;;5045843;28;20052;-35
2023/04/17 08:46:37;;;;;;;23.38;11.05;;;11.60;99.90;;;;;;5048601;28;20045;-35
2023/04/17 08:49:03;;;;;;;18.48;10.43;;;11.70;99.90;;;;;;5047387;28;20114;-36
2023/04/17 08:51:30;;;;;;;20.00;10.70;;;11.80;99.90;;;;;;5047122;28;20143;-35
2023/04/17 08:53:56;;;;;;;19.67;10.40;;;11.90;99.90;;;;;;5044576;28;20056;-35
2023/04/17 08:56:21;;;;;;;18.80;10.85;;;12.00;99.90;;;;;;5048369;28;20049;-36
2023/04/17 08:58:47;;;;;;;18.77;9.80;;;12.00;99.90;;;;;;5045699;28;20053;-35
2023/04/17 09:01:18;;;;;;;19.58;10.15;;;12.10;99.90;;;;;;5043517;28;20059;-35
2023/04/17 09:03:48;;;;;;;17.40;10.52;;;12.20;99.90;;;;;;5041383;28;20145;-35
2023/04/17 09:06:14;;;;;;;18.45;10.38;;;12.30;99.90;;;;;;5041321;28;20075;-36
2023/04/17 09:09:03;;;;;;;17.38;10.02;;;12.40;99.90;;;;;;5044628;28;20061;-35
2023/04/17 09:11:29;;;;;;;15.55;10.05;;;12.50;99.90;;;;;;5043234;28;20075;-36
2023/04/17 09:13:55;;;;;;;18.92;10.65;;;12.50;99.90;;;;;;5042644;28;20502;-35
2023/04/17 09:16:24;;;;;;;16.00;10.02;;;12.50;99.90;;;;;;5039895;28;20060;-35
2023/04/17 09:18:50;;;;;;;18.73;11.43;;;12.50;99.90;;;;;;5037157;28;20503;-35
2023/04/17 09:21:17;;;;;;;16.30;10.15;;;12.50;99.90;;;;;;5038077;28;20049;-36
2023/04/17 09:23:50;;;;;;;17.98;9.45;;;12.50;99.90;;;;;;5038853;28;20052;-35
2023/04/17 09:26:21;;;;;;;17.42;10.35;;;12.50;99.90;;;;;;5042443;28;20048;-35
2023/04/17 09:29:03;;;;;;;15.32;9.60;;;12.60;99.90;;;;;;5046788;28;20136;-35
2023/04/17 09:31:33;;;;;;;15.02;9.57;;;12.60;99.90;;;;;;5042599;28;20072;-34
2023/04/17 09:34:01;;;;;;;17.02;9.77;;;12.60;99.90;;;;;;5029139;28;20059;-35
2023/04/17 09:36:29;;;;;;;19.65;11.20;;;12.70;99.90;;;;;;5042773;28;20526;-35
2023/04/17 09:38:56;;;;;;;14.52;9.45;;;12.70;99.90;;;;;;5048342;28;20557;-34
2023/04/17 09:41:26;;;;;;;15.88;10.82;;;12.80;99.90;;;;;;5042626;28;20099;-34
2023/04/17 09:43:54;;;;;;;16.75;10.68;;;12.90;99.90;;;;;;5042973;28;20422;-34
2023/04/17 09:46:40;;;;;;;16.30;10.77;;;13.00;99.90;;;;;;5048366;28;20049;-34
2023/04/17 09:49:18;;;;;;;17.30;11.55;;;13.10;99.90;;;;;;5039112;28;20053;-35
2023/04/17 09:51:45;;;;;;;15.02;9.68;;;13.20;99.90;;;;;;5029550;28;20849;-35
2023/04/17 09:54:13;;;;;;;15.23;9.90;;;13.40;99.90;;;;;;5044622;28;20132;-35
2023/04/17 09:56:40;;;;;;;15.80;9.88;;;13.60;99.90;;;;;;5042559;28;20486;-34
2023/04/17 09:59:06;;;;;;;19.50;10.68;;;13.80;99.90;;;;;;5045083;28;20084;-41
2023/04/17 10:01:34;;;;;;;18.33;11.32;;;13.90;99.90;;;;;;5038184;28;20041;-34
2023/04/17 10:04:01;;;;;;;17.73;10.73;;;14.00;99.90;;;;;;5040509;28;20199;-34
2023/04/17 10:06:29;;;;;;;17.83;10.32;;;14.10;99.90;;;;;;5028314;28;20513;-34
2023/04/17 10:08:55;;;;;;;16.95;11.38;;;14.20;99.90;;;;;;5045538;28;20060;-34
2023/04/17 10:11:28;;;;;;;15.02;9.50;;;14.30;99.90;;;;;;5038933;28;20050;-33
2023/04/17 10:14:11;;;;;;;19.42;11.57;;;14.50;99.90;;;;;;5043888;28;20106;-34
2023/04/17 10:16:38;;;;;;;15.73;9.85;;;14.70;99.90;;;;;;5046229;28;20486;-39
2023/04/17 10:19:29;;;;;;;18.35;11.30;;;14.80;99.90;;;;;;5043890;28;20482;-38
2023/04/17 10:22:18;;;;;;;17.80;11.27;;;15.00;99.90;;;;;;5046598;28;20507;-40
2023/04/17 10:24:46;;;;;;;16.80;10.80;;;14.90;99.90;;;;;;5031404;28;20126;-40
2023/04/17 10:27:26;;;;;;;18.30;11.45;;;15.00;99.90;;;;;;5043497;28;20059;-38
2023/04/17 10:29:56;;;;;;;18.15;11.02;;;15.00;99.90;;;;;;5045759;28;20068;-38
2023/04/17 10:32:25;;;;;;;17.92;11.90;;;15.10;99.90;;;;;;5029377;28;20407;-39
2023/04/17 10:34:58;;;;;;;16.63;11.32;;;15.30;99.90;;;;;;5021383;28;20063;-39
2023/04/17 10:37:51;;;;;;;15.10;11.18;;;15.50;99.90;;;;;;5048189;28;20510;-38
2023/04/17 10:40:23;;;;;;;16.38;11.35;;;15.70;99.90;;;;;;5045604;28;20541;-40
2023/04/17 10:43:08;;;;;;;;;;;16.00;99.90;;;;;;5042683;28;20128;-38
2023/04/17 10:45:58;;;;;;;18.25;11.45;;;16.10;99.90;;;;;;5035107;28;19959;-38
2023/04/17 10:48:37;;;;;;;17.10;11.85;;;16.10;99.90;;;;;;5040789;28;20094;-40
2023/04/17 10:51:27;;;;;;;17.48;12.05;;;16.10;99.90;;;;;;5040700;28;20499;-39
2023/04/17 10:53:57;;;;;;;17.85;10.88;;;16.20;99.90;;;;;;5022355;28;20367;-40
2023/04/17 10:56:29;;;;;;;14.05;10.63;;;16.20;99.90;;;;;;5044372;28;20093;-40
2023/04/17 10:59:03;;;;;;;17.33;11.10;;;16.40;99.90;;;;;;5039261;28;20057;-39
2023/04/17 11:01:47;;;;;;;17.65;11.57;;;16.70;99.90;;;;;;5037789;28;20037;-38
2023/04/17 11:04:20;;;;;;;17.90;12.48;;;16.80;99.90;;;;;;5033140;28;20052;-38
2023/04/17 11:06:45;;;;;;;;;;;16.70;99.90;;;;;;5040041;28;20056;-39
2023/04/17 11:09:11;;;;;;;13.10;9.88;;;16.70;99.90;;;;;;5038473;28;19935;-40
2023/04/17 11:11:39;;;;;;;14.48;10.45;;;16.60;99.90;;;;;;5042508;28;20053;-39
2023/04/17 11:14:10;;;;;;;15.48;10.82;;;16.50;99.90;;;;;;5041191;28;20076;-40
2023/04/17 11:16:40;;;;;;;18.17;11.80;;;16.60;99.90;;;;;;5044788;28;20053;-38
2023/04/17 11:19:10;;;;;;;16.45;11.88;;;16.70;99.90;;;;;;5039627;28;20056;-38
2023/04/17 11:21:46;;;;;;;14.85;10.65;;;16.70;99.90;;;;;;5046520;28;20379;-39
2023/04/17 11:24:12;;;;;;;16.30;11.23;;;16.50;99.90;;;;;;5045506;28;20087;-39
2023/04/17 11:26:45;;;;;;;14.63;11.00;;;16.50;99.90;;;;;;5032226;28;20085;-40
2023/04/17 11:29:15;;;;;;;14.73;10.23;;;16.70;99.90;;;;;;5032502;28;20422;-40
2023/04/17 11:31:41;;;;;;;14.32;9.23;;;16.90;99.90;;;;;;5029820;28;20142;-40
2023/04/17 11:34:08;;;;;;;14.65;9.38;;;17.20;99.90;;;;;;5037076;28;20064;-40
2023/04/17 11:36:34;;;;;;;14.15;9.90;;;17.40;99.90;;;;;;5044426;28;20091;-38
2023/04/17 11:39:00;;;;;;;15.20;11.27;;;17.60;99.90;;;;;;5042396;28;20406;-38
2023/04/17 11:41:52;;;;;;;14.23;10.95;;;17.70;99.90;;;;;;5045117;28;20056;-40
2023/04/17 11:44:21;;;;;;;13.90;9.95;;;17.60;99.90;;;;;;5038996;28;20536;-39
2023/04/17 11:46:51;;;;;;;13.48;9.35;;;17.30;99.90;;;;;;5040816;28;20422;-40
2023/04/17 11:49:24;;;;;;;10.90;7.25;;;17.10;99.90;;;;;;5042637;28;20060;-40
2023/04/17 11:51:50;;;;;;;8.88;7.32;;;17.10;99.90;;;;;;5040764;28;20053;-40
2023/04/17 11:54:36;;;;;;;10.52;7.05;;;17.20;99.90;;;;;;5041646;28;20060;-38
2023/04/17 11:57:10;;;;;;;11.23;7.53;;;17.40;99.90;;;;;;5027841;28;20057;-40
2023/04/17 11:59:38;;;;;;;9.70;7.57;;;17.70;99.90;;;;;;5030829;28;20615;-42
2023/04/17 12:02:06;;;;;;;10.00;7.53;;;18.00;99.90;;;;;;5040633;28;20037;-41
2023/04/17 12:04:33;;;;;;;11.98;7.57;;;18.20;99.90;;;;;;5042272;28;20320;-41
2023/04/17 12:07:03;;;;;;;10.40;7.00;;;18.40;99.90;;;;;;5038326;28;20498;-40
2023/04/17 12:09:32;;;;;;;8.65;5.90;;;18.30;99.90;;;;;;5036646;28;20065;-41
2023/04/17 12:12:04;;;;;;;10.35;6.03;;;18.10;99.90;;;;;;5025569;28;20049;-38
2023/04/17 12:14:30;;;;;;;8.10;5.97;;;17.90;99.90;;;;;;5040559;28;20118;-41
2023/04/17 12:16:56;;;;;;;8.45;6.10;;;17.70;99.90;;;;;;5042881;28;20488;-40
2023/04/17 12:19:24;;;;;;;8.73;6.18;;;17.60;99.90;;;;;;5037689;28;20065;-40
2023/04/17 12:21:51;;;;;;;13.18;7.53;;;17.60;99.90;;;;;;5038915;28;20379;-43
2023/04/17 12:24:18;;;;;;;9.50;6.40;;;17.50;99.90;;;;;;5041488;28;20385;-41
2023/04/17 12:26:48;;;;;;;8.45;5.05;;;17.40;99.90;;;;;;5043844;28;20057;-40
2023/04/17 12:29:15;;;;;;;8.13;5.88;;;17.40;99.90;;;;;;5043375;28;20049;-40
2023/04/17 12:31:41;;;;;;;9.25;5.70;;;17.40;99.90;;;;;;5040940;28;20128;-40
2023/04/17 12:34:07;;;;;;;10.07;6.05;;;17.60;99.90;;;;;;5040642;28;20076;-40
2023/04/17 12:36:33;;;;;;;8.15;5.00;;;17.80;99.90;;;;;;5043519;28;20459;-40
2023/04/17 12:38:59;;;;;;;10.95;5.57;;;18.00;99.90;;;;;;5044865;28;20568;-40
2023/04/17 12:41:25;;;;;;;7.53;5.03;;;18.20;99.90;;;;;;5038691;28;20498;-41